| time (UTC) | temp F | wind direction | speed MPH | gust MPH | rain 1hr in | rain 24hr in | rain mn in | humidity % | barometer mb |
| 20260506194205 | 54 | 18 | 5.0 | 9.0 | 0.00 | 0.00 | 0.00 | 72 | 1011.7 |
| 20260506193205 | 54 | 30 | 5.0 | 8.0 | 0.00 | 0.00 | 0.00 | 73 | 1011.5 |
| 20260506192704 | 54 | 19 | 3.0 | 7.0 | 0.00 | 0.00 | 0.00 | 75 | 1011.5 |
| 20260506192204 | 54 | 16 | 2.0 | 5.0 | 0.00 | 0.00 | 0.00 | 75 | 1011.5 |
| 20260506191705 | 54 | 66 | 6.0 | 12.0 | 0.00 | 0.00 | 0.00 | 77 | 1011.5 |
| 20260506190705 | 55 | 74 | 3.0 | 7.0 | 0.00 | 0.00 | 0.00 | 75 | 1011.3 |
| 20260506190205 | 55 | 48 | 3.0 | 13.0 | 0.00 | 0.00 | 0.00 | 74 | 1011.3 |
| 20260506185705 | 55 | 69 | 4.0 | 13.0 | 0.00 | 0.00 | 0.00 | 71 | 1011.1 |
| 20260506185205 | 55 | 31 | 5.0 | 9.0 | 0.00 | 0.00 | 0.00 | 71 | 1011.1 |
| 20260506184704 | 55 | 25 | 3.0 | 9.0 | 0.00 | 0.00 | 0.00 | 71 | 1011.0 |
| 20260506184204 | 55 | 13 | 3.0 | 8.0 | 0.00 | 0.00 | 0.00 | 70 | 1010.9 |
| 20260506183206 | 55 | 12 | 2.0 | 5.0 | 0.00 | 0.00 | 0.00 | 71 | 1010.8 |
| 20260506182704 | 55 | 7 | 3.0 | 6.0 | 0.00 | 0.00 | 0.00 | 69 | 1010.8 |
| 20260506182204 | 55 | 19 | 2.0 | 5.0 | 0.00 | 0.00 | 0.00 | 70 | 1010.8 |
| 20260506181704 | 55 | 14 | 4.0 | 8.0 | 0.00 | 0.00 | 0.00 | 69 | 1010.7 |
| 20260506180204 | 55 | 55 | 6.0 | 12.0 | 0.00 | 0.00 | 0.00 | 67 | 1010.6 |
| 20260506175705 | 55 | 17 | 5.0 | 10.0 | 0.00 | 0.00 | 0.00 | 68 | 1010.6 |
| 20260506175204 | 55 | 23 | 5.0 | 10.0 | 0.00 | 0.00 | 0.00 | 67 | 1010.5 |
| 20260506174704 | 55 | 15 | 4.0 | 8.0 | 0.00 | 0.00 | 0.00 | 66 | 1010.4 |
| 20260506174204 | 56 | 22 | 6.0 | 9.0 | 0.00 | 0.00 | 0.00 | 65 | 1010.2 |
| 20260506173705 | 56 | 14 | 3.0 | 8.0 | 0.00 | 0.00 | 0.00 | 67 | 1010.2 |
| 20260506173204 | 56 | 22 | 4.0 | 10.0 | 0.00 | 0.00 | 0.00 | 65 | 1010.1 |
| 20260506172704 | 56 | 30 | 3.0 | 10.0 | 0.00 | 0.00 | 0.00 | 65 | 1010.1 |
| 20260506172204 | 56 | 10 | 3.0 | 8.0 | 0.00 | 0.00 | 0.00 | 65 | 1010.0 |
| 20260506171204 | 57 | 70 | 5.0 | 9.0 | 0.00 | 0.00 | 0.00 | 66 | 1009.9 |
| 20260506170704 | 57 | 47 | 3.0 | 7.0 | 0.00 | 0.00 | 0.00 | 65 | 1009.9 |
| 20260506170204 | 57 | 60 | 3.0 | 8.0 | 0.00 | 0.00 | 0.00 | 63 | 1009.9 |
| 20260506165704 | 57 | 24 | 3.0 | 12.0 | 0.00 | 0.00 | 0.00 | 65 | 1009.9 |
| 20260506165204 | 56 | 73 | 3.0 | 7.0 | 0.00 | 0.00 | 0.00 | 65 | 1009.9 |
| 20260506164204 | 56 | 136 | 2.0 | 5.0 | 0.00 | 0.00 | 0.00 | 63 | 1009.8 |
| 20260506163704 | 56 | 121 | 1.0 | 3.0 | 0.00 | 0.00 | 0.00 | 66 | 1009.9 |
| 20260506163204 | 56 | 121 | 1.0 | 3.0 | 0.00 | 0.00 | 0.00 | 64 | 1009.8 |
| 20260506162704 | 56 | 99 | 3.0 | 6.0 | 0.00 | 0.00 | 0.00 | 64 | 1009.8 |
| 20260506161704 | 57 | 102 | 1.0 | 5.0 | 0.00 | 0.00 | 0.00 | 65 | 1009.8 |
| 20260506161204 | 56 | 101 | 3.0 | 6.0 | 0.00 | 0.00 | 0.00 | 62 | 1009.7 |
| 20260506160205 | 56 | 100 | 2.0 | 6.0 | 0.00 | 0.00 | 0.00 | 60 | 1009.8 |
| 20260506155704 | 57 | 103 | 1.0 | 5.0 | 0.00 | 0.00 | 0.00 | 61 | 1009.8 |
| 20260506155204 | 57 | 77 | 1.0 | 8.0 | 0.00 | 0.00 | 0.00 | 62 | 1009.8 |
| 20260506154703 | 57 | 65 | 1.0 | 7.0 | 0.00 | 0.00 | 0.00 | 62 | 1009.8 |
| 20260506154204 | 56 | 134 | 2.0 | 5.0 | 0.00 | 0.00 | 0.00 | 60 | 1009.8 |
| 20260506153704 | 57 | 95 | 3.0 | 6.0 | 0.00 | 0.00 | 0.00 | 62 | 1009.8 |
| 20260506153206 | 57 | 110 | 5.0 | 9.0 | 0.00 | 0.00 | 0.00 | 61 | 1009.8 |
| 20260506152707 | 57 | 77 | 2.0 | 8.0 | 0.00 | 0.00 | 0.00 | 60 | 1009.8 |
| 20260506152206 | 57 | 61 | 2.0 | 8.0 | 0.00 | 0.00 | 0.00 | 60 | 1009.7 |
| 20260506151706 | 57 | 99 | 3.0 | 7.0 | 0.00 | 0.00 | 0.00 | 58 | 1009.7 |
| 20260506151206 | 57 | 109 | 2.0 | 6.0 | 0.00 | 0.00 | 0.00 | 61 | 1009.7 |
| 20260506150706 | 57 | 66 | 2.0 | 8.0 | 0.00 | 0.00 | 0.00 | 63 | 1009.6 |
| 20260506150206 | 57 | 111 | 3.0 | 8.0 | 0.00 | 0.00 | 0.00 | 63 | 1009.6 |
| 20260506145706 | 57 | 109 | 4.0 | 8.0 | 0.00 | 0.00 | 0.00 | 60 | 1009.6 |
| 20260506145206 | 57 | 87 | 2.0 | 9.0 | 0.00 | 0.00 | 0.00 | 60 | 1009.6 |
| 20260506144206 | 56 | 122 | 5.0 | 9.0 | 0.00 | 0.00 | 0.00 | 61 | 1009.7 |
| 20260506143706 | 57 | 115 | 6.0 | 12.0 | 0.00 | 0.00 | 0.00 | 61 | 1009.7 |
| 20260506142706 | 57 | 120 | 3.0 | 8.0 | 0.00 | 0.00 | 0.00 | 62 | 1009.6 |
| 20260506142206 | 57 | 111 | 2.0 | 8.0 | 0.00 | 0.00 | 0.00 | 62 | 1009.6 |
| 20260506141706 | 57 | 94 | 3.0 | 10.0 | 0.00 | 0.00 | 0.00 | 60 | 1009.6 |
| 20260506140706 | 59 | 40 | 5.0 | 14.0 | 0.00 | 0.00 | 0.00 | 54 | 1009.6 |
| 20260506140206 | 59 | 49 | 6.0 | 13.0 | 0.00 | 0.00 | 0.00 | 51 | 1009.6 |
| 20260506135706 | 59 | 18 | 5.0 | 14.0 | 0.00 | 0.00 | 0.00 | 49 | 1009.6 |
| 20260506135206 | 59 | 51 | 4.0 | 14.0 | 0.00 | 0.00 | 0.00 | 57 | 1009.6 |
| 20260506133206 | 57 | 87 | 3.0 | 9.0 | 0.00 | 0.00 | 0.00 | 59 | 1009.5 |
| 20260506132705 | 57 | 96 | 2.0 | 10.0 | 0.00 | 0.00 | 0.00 | 60 | 1009.5 |
| 20260506132206 | 56 | 69 | 5.0 | 10.0 | 0.00 | 0.00 | 0.00 | 59 | 1009.5 |
| 20260506131706 | 56 | 95 | 3.0 | 7.0 | 0.00 | 0.00 | 0.00 | 60 | 1009.4 |
| 20260506131206 | 57 | 100 | 2.0 | 7.0 | 0.00 | 0.00 | 0.00 | 59 | 1009.5 |
| 20260506130706 | 58 | 78 | 6.0 | 10.0 | 0.00 | 0.00 | 0.00 | 60 | 1009.4 |
| 20260506130206 | 58 | 46 | 6.0 | 9.0 | 0.00 | 0.00 | 0.00 | 58 | 1009.3 |
| 20260506125706 | 58 | 62 | 5.0 | 12.0 | 0.00 | 0.00 | 0.00 | 55 | 1009.3 |
| 20260506125206 | 58 | 60 | 6.0 | 12.0 | 0.00 | 0.00 | 0.00 | 58 | 1009.3 |
| 20260506124706 | 59 | 30 | 10.0 | 15.0 | 0.00 | 0.00 | 0.00 | 53 | 1009.2 |
| 20260506124206 | 59 | 35 | 3.0 | 10.0 | 0.00 | 0.00 | 0.00 | 58 | 1009.3 |
| 20260506123706 | 59 | 62 | 6.0 | 13.0 | 0.00 | 0.00 | 0.00 | 59 | 1009.2 |
| 20260506123206 | 59 | 64 | 6.0 | 10.0 | 0.00 | 0.00 | 0.00 | 58 | 1009.2 |
| 20260506122706 | 59 | 70 | 7.0 | 12.0 | 0.00 | 0.00 | 0.00 | 62 | 1009.2 |
| 20260506122208 | 59 | 46 | 6.0 | 12.0 | 0.00 | 0.00 | 0.00 | 62 | 1009.2 |
| 20260506121706 | 59 | 32 | 6.0 | 12.0 | 0.00 | 0.00 | 0.00 | 58 | 1009.1 |
| 20260506121206 | 60 | 44 | 6.0 | 12.0 | 0.00 | 0.00 | 0.00 | 59 | 1009.2 |
| 20260506120706 | 61 | 15 | 11.0 | 18.0 | 0.00 | 0.00 | 0.00 | 55 | 1009.2 |
| 20260506120206 | 61 | 35 | 5.0 | 14.0 | 0.00 | 0.00 | 0.00 | 58 | 1009.1 |
| 20260506115705 | 61 | 55 | 6.0 | 14.0 | 0.00 | 0.00 | 0.00 | 58 | 1009.1 |
| 20260506115205 | 59 | 64 | 6.0 | 12.0 | 0.00 | 0.00 | 0.00 | 59 | 1009.1 |
| 20260506114705 | 60 | 59 | 6.0 | 16.0 | 0.00 | 0.00 | 0.00 | 59 | 1009.1 |
| 20260506114206 | 59 | 17 | 8.0 | 14.0 | 0.00 | 0.00 | 0.00 | 62 | 1009.1 |
| 20260506113706 | 58 | 11 | 7.0 | 14.0 | 0.00 | 0.00 | 0.00 | 59 | 1009.1 |
| 20260506112706 | 60 | 72 | 6.0 | 13.0 | 0.00 | 0.00 | 0.00 | 63 | 1009.1 |
| 20260506112206 | 60 | 31 | 6.0 | 14.0 | 0.00 | 0.00 | 0.00 | 62 | 1009.1 |
| 20260506111706 | 60 | 61 | 7.0 | 17.0 | 0.00 | 0.00 | 0.00 | 61 | 1009.1 |
| 20260506111206 | 60 | 16 | 6.0 | 12.0 | 0.00 | 0.00 | 0.00 | 64 | 1009.1 |
| 20260506105705 | 60 | 52 | 8.0 | 15.0 | 0.00 | 0.00 | 0.00 | 65 | 1009.1 |
| 20260506105206 | 60 | 69 | 6.0 | 15.0 | 0.00 | 0.00 | 0.00 | 64 | 1009.1 |
| 20260506104705 | 60 | 71 | 7.0 | 16.0 | 0.00 | 0.00 | 0.00 | 62 | 1009.0 |
| 20260506104205 | 60 | 32 | 7.0 | 14.0 | 0.00 | 0.00 | 0.00 | 62 | 1009.1 |
| 20260506103706 | 59 | 62 | 8.0 | 14.0 | 0.00 | 0.00 | 0.00 | 68 | 1009.0 |
| 20260506103205 | 59 | 28 | 7.0 | 12.0 | 0.00 | 0.00 | 0.00 | 69 | 1009.1 |
| 20260506102706 | 58 | 13 | 7.0 | 14.0 | 0.00 | 0.00 | 0.00 | 67 | 1009.1 |
| 20260506102206 | 58 | 62 | 6.0 | 13.0 | 0.00 | 0.00 | 0.00 | 70 | 1009.0 |
| 20260506100206 | 57 | 55 | 6.0 | 12.0 | 0.00 | 0.00 | 0.00 | 74 | 1008.9 |
| 20260506095706 | 57 | 20 | 4.0 | 13.0 | 0.00 | 0.00 | 0.00 | 74 | 1008.9 |
| 20260506095205 | 57 | 7 | 7.0 | 13.0 | 0.00 | 0.00 | 0.00 | 73 | 1008.9 |
| 20260506094706 | 58 | 56 | 9.0 | 15.0 | 0.00 | 0.00 | 0.00 | 74 | 1008.9 |
| 20260506094206 | 57 | 47 | 9.0 | 13.0 | 0.00 | 0.00 | 0.00 | 76 | 1008.8 |
| 20260506093706 | 56 | 15 | 7.0 | 15.0 | 0.00 | 0.00 | 0.00 | 76 | 1008.8 |
| 20260506093206 | 56 | 57 | 7.0 | 13.0 | 0.00 | 0.00 | 0.00 | 77 | 1008.9 |
| 20260506092705 | 56 | 54 | 7.0 | 14.0 | 0.00 | 0.00 | 0.00 | 75 | 1008.8 |
| 20260506092205 | 57 | 31 | 7.0 | 13.0 | 0.00 | 0.00 | 0.00 | 73 | 1008.8 |
| 20260506091705 | 58 | 12 | 5.0 | 14.0 | 0.00 | 0.00 | 0.00 | 72 | 1008.6 |
| 20260506090705 | 59 | 71 | 7.0 | 13.0 | 0.00 | 0.00 | 0.00 | 71 | 1008.7 |
| 20260506090205 | 59 | 76 | 9.0 | 15.0 | 0.00 | 0.00 | 0.00 | 71 | 1008.7 |
| 20260506085706 | 59 | 54 | 10.0 | 17.0 | 0.00 | 0.00 | 0.00 | 69 | 1008.7 |
| 20260506084205 | 58 | 19 | 9.0 | 18.0 | 0.00 | 0.00 | 0.00 | 70 | 1008.5 |
| 20260506083706 | 58 | 14 | 9.0 | 16.0 | 0.00 | 0.00 | 0.00 | 71 | 1008.5 |
| 20260506083206 | 58 | 64 | 9.0 | 15.0 | 0.00 | 0.00 | 0.00 | 73 | 1008.5 |
| 20260506082705 | 57 | 59 | 6.0 | 12.0 | 0.00 | 0.00 | 0.00 | 76 | 1008.4 |
| 20260506082205 | 57 | 3 | 6.0 | 13.0 | 0.00 | 0.00 | 0.00 | 78 | 1008.4 |
| 20260506081706 | 56 | 23 | 5.0 | 10.0 | 0.00 | 0.00 | 0.00 | 79 | 1008.4 |
| 20260506081205 | 56 | 32 | 8.0 | 12.0 | 0.00 | 0.00 | 0.00 | 77 | 1008.4 |
| 20260506080705 | 56 | 19 | 5.0 | 10.0 | 0.00 | 0.00 | 0.00 | 78 | 1008.4 |
| 20260506080205 | 55 | 16 | 6.0 | 13.0 | 0.00 | 0.00 | 0.00 | 79 | 1008.3 |
| 20260506073205 | 54 | 23 | 7.0 | 16.0 | 0.00 | 0.00 | 0.00 | 80 | 1008.4 |
| 20260506072705 | 54 | 7 | 8.0 | 13.0 | 0.00 | 0.00 | 0.00 | 81 | 1008.4 |
| 20260506072206 | 54 | 24 | 6.0 | 14.0 | 0.00 | 0.00 | 0.00 | 83 | 1008.4 |
| 20260506071205 | 53 | 4 | 3.0 | 10.0 | 0.00 | 0.00 | 0.00 | 83 | 1008.4 |
| 20260506070705 | 53 | 17 | 6.0 | 12.0 | 0.00 | 0.00 | 0.00 | 83 | 1008.4 |
| 20260506070205 | 53 | 7 | 7.0 | 12.0 | 0.00 | 0.00 | 0.00 | 83 | 1008.3 |
| 20260506062205 | 53 | 15 | 5.0 | 8.0 | 0.00 | 0.00 | 0.00 | 82 | 1008.2 |
| 20260506061705 | 53 | 0 | 6.0 | 9.0 | 0.00 | 0.00 | 0.00 | 83 | 1008.2 |
| 20260506061205 | 52 | 0 | 4.0 | 8.0 | 0.00 | 0.00 | 0.00 | 84 | 1008.2 |
| 20260506060706 | 52 | 4 | 6.0 | 12.0 | 0.00 | 0.00 | 0.00 | 84 | 1008.2 |
| 20260506060205 | 52 | 15 | 6.0 | 9.0 | 0.00 | 0.00 | 0.00 | 84 | 1008.2 |
| 20260506051205 | 51 | 19 | 5.0 | 10.0 | 0.00 | 0.00 | 0.00 | 85 | 1008.1 |
| 20260506050705 | 51 | 21 | 7.0 | 10.0 | 0.00 | 0.00 | 0.00 | 85 | 1008.2 |
| 20260506050205 | 51 | 3 | 3.0 | 7.0 | 0.00 | 0.00 | 0.00 | 84 | 1008.2 |
| 20260506044705 | 51 | 10 | 6.0 | 12.0 | 0.00 | 0.00 | 0.00 | 84 | 1008.2 |
| 20260506044205 | 51 | 12 | 6.0 | 12.0 | 0.00 | 0.00 | 0.00 | 84 | 1008.2 |
| 20260506043704 | 51 | 10 | 7.0 | 13.0 | 0.00 | 0.00 | 0.00 | 84 | 1008.2 |
| 20260506043205 | 51 | 16 | 7.0 | 13.0 | 0.00 | 0.00 | 0.00 | 84 | 1008.2 |
| 20260506041205 | 51 | 13 | 5.0 | 9.0 | 0.00 | 0.00 | 0.00 | 84 | 1008.3 |
| 20260506040705 | 51 | 22 | 8.0 | 12.0 | 0.00 | 0.00 | 0.00 | 84 | 1008.3 |
| 20260506040205 | 51 | 13 | 5.0 | 12.0 | 0.00 | 0.00 | 0.00 | 84 | 1008.4 |
| 20260506035705 | 51 | 25 | 6.0 | 10.0 | 0.00 | 0.00 | 0.00 | 85 | 1008.4 |
| 20260506035205 | 51 | 10 | 5.0 | 14.0 | 0.00 | 0.00 | 0.00 | 85 | 1008.3 |
| 20260506034704 | 51 | 17 | 9.0 | 12.0 | 0.00 | 0.00 | 0.00 | 85 | 1008.4 |
| 20260506034205 | 50 | 10 | 3.0 | 10.0 | 0.00 | 0.00 | 0.00 | 86 | 1008.4 |
| 20260506033705 | 50 | 12 | 5.0 | 8.0 | 0.00 | 0.00 | 0.00 | 86 | 1008.4 |
| 20260506032705 | 50 | 15 | 5.0 | 9.0 | 0.00 | 0.00 | 0.00 | 85 | 1008.5 |
| 20260506032205 | 50 | 17 | 3.0 | 5.0 | 0.00 | 0.00 | 0.00 | 85 | 1008.5 |
| 20260506031705 | 50 | 20 | 6.0 | 12.0 | 0.00 | 0.00 | 0.00 | 85 | 1008.5 |
| 20260506031205 | 50 | 14 | 3.0 | 8.0 | 0.00 | 0.00 | 0.00 | 85 | 1008.5 |
| 20260506030705 | 50 | 18 | 5.0 | 10.0 | 0.00 | 0.00 | 0.00 | 84 | 1008.6 |
| 20260506030205 | 51 | 11 | 4.0 | 9.0 | 0.00 | 0.00 | 0.00 | 84 | 1008.6 |
| 20260506025705 | 51 | 12 | 3.0 | 7.0 | 0.00 | 0.00 | 0.00 | 84 | 1008.7 |
| 20260506025204 | 50 | 12 | 5.0 | 9.0 | 0.00 | 0.00 | 0.00 | 84 | 1008.7 |
| 20260506024705 | 50 | 14 | 5.0 | 8.0 | 0.00 | 0.00 | 0.00 | 84 | 1008.7 |
| 20260506024204 | 50 | 10 | 3.0 | 8.0 | 0.00 | 0.00 | 0.00 | 84 | 1008.7 |
| 20260506023705 | 50 | 15 | 6.0 | 10.0 | 0.00 | 0.00 | 0.00 | 84 | 1008.7 |
| 20260506023205 | 50 | 6 | 5.0 | 9.0 | 0.00 | 0.00 | 0.00 | 84 | 1008.7 |
| 20260506022704 | 50 | 4 | 6.0 | 10.0 | 0.00 | 0.00 | 0.00 | 84 | 1008.8 |
| 20260506022204 | 50 | 13 | 6.0 | 9.0 | 0.00 | 0.00 | 0.00 | 84 | 1008.8 |
| 20260506021704 | 50 | 15 | 6.0 | 12.0 | 0.00 | 0.00 | 0.00 | 84 | 1008.7 |
| 20260506021204 | 50 | 10 | 4.0 | 9.0 | 0.00 | 0.00 | 0.00 | 84 | 1008.8 |
| 20260506020704 | 50 | 3 | 5.0 | 8.0 | 0.00 | 0.00 | 0.00 | 84 | 1008.8 |
| 20260506020205 | 50 | 17 | 5.0 | 9.0 | 0.00 | 0.00 | 0.00 | 84 | 1008.8 |
| 20260506015705 | 50 | 8 | 6.0 | 12.0 | 0.00 | 0.00 | 0.00 | 84 | 1008.8 |
| 20260506015205 | 50 | 353 | 6.0 | 12.0 | 0.00 | 0.00 | 0.00 | 84 | 1008.8 |
| 20260506014704 | 50 | 10 | 4.0 | 10.0 | 0.00 | 0.00 | 0.00 | 84 | 1008.8 |
| 20260506014205 | 50 | 356 | 4.0 | 10.0 | 0.00 | 0.00 | 0.00 | 84 | 1008.8 |
| 20260506013704 | 50 | 350 | 4.0 | 8.0 | 0.00 | 0.00 | 0.00 | 84 | 1008.9 |
| 20260506013205 | 50 | 8 | 5.0 | 8.0 | 0.00 | 0.00 | 0.00 | 83 | 1008.9 |
| 20260506012705 | 50 | 357 | 5.0 | 9.0 | 0.00 | 0.00 | 0.00 | 84 | 1008.9 |
| 20260506012204 | 50 | 356 | 4.0 | 9.0 | 0.00 | 0.00 | 0.00 | 83 | 1008.9 |
| 20260506011705 | 50 | 12 | 5.0 | 8.0 | 0.00 | 0.00 | 0.00 | 84 | 1008.9 |
| 20260506011205 | 50 | 8 | 5.0 | 9.0 | 0.00 | 0.00 | 0.00 | 83 | 1008.9 |
| 20260506010704 | 50 | 19 | 6.0 | 10.0 | 0.00 | 0.00 | 0.00 | 83 | 1009.0 |
| 20260506010204 | 50 | 9 | 5.0 | 9.0 | 0.00 | 0.00 | 0.00 | 84 | 1009.1 |
| 20260506005205 | 50 | 24 | 6.0 | 12.0 | 0.00 | 0.00 | 0.00 | 84 | 1009.1 |
| 20260506003704 | 50 | 18 | 5.0 | 8.0 | 0.00 | 0.00 | 0.00 | 84 | 1009.2 |
| 20260506003205 | 50 | 23 | 5.0 | 10.0 | 0.00 | 0.00 | 0.00 | 84 | 1009.3 |
| 20260506002704 | 50 | 13 | 5.0 | 12.0 | 0.00 | 0.00 | 0.00 | 84 | 1009.3 |
| 20260506001705 | 50 | 23 | 8.0 | 13.0 | 0.00 | 0.00 | 0.00 | 83 | 1009.4 |
| 20260506001205 | 50 | 17 | 6.0 | 12.0 | 0.00 | 0.00 | 0.00 | 84 | 1009.5 |
| 20260506000704 | 50 | 15 | 7.0 | 14.0 | 0.00 | 0.00 | 0.00 | 84 | 1009.5 |
| 20260506000205 | 50 | 0 | 6.0 | 12.0 | 0.00 | 0.00 | 0.00 | 84 | 1009.5 |
| 20260505235705 | 50 | 19 | 5.0 | 10.0 | 0.00 | 0.00 | 0.00 | 83 | 1009.5 |
| 20260505235204 | 50 | 10 | 5.0 | 9.0 | 0.00 | 0.00 | 0.00 | 83 | 1009.5 |
| 20260505234704 | 50 | 19 | 6.0 | 10.0 | 0.00 | 0.00 | 0.00 | 83 | 1009.5 |
| 20260505234204 | 50 | 14 | 5.0 | 9.0 | 0.00 | 0.00 | 0.00 | 83 | 1009.6 |
| 20260505233705 | 50 | 11 | 6.0 | 13.0 | 0.00 | 0.00 | 0.00 | 84 | 1009.6 |
| 20260505233205 | 49 | 2 | 4.0 | 10.0 | 0.00 | 0.00 | 0.00 | 83 | 1009.7 |
| 20260505232704 | 49 | 8 | 5.0 | 10.0 | 0.00 | 0.00 | 0.00 | 83 | 1009.7 |
| 20260505232205 | 49 | 14 | 5.0 | 10.0 | 0.00 | 0.00 | 0.00 | 83 | 1009.8 |
| 20260505231704 | 49 | 8 | 5.0 | 8.0 | 0.00 | 0.00 | 0.00 | 83 | 1009.8 |
| 20260505231204 | 49 | 11 | 3.0 | 8.0 | 0.00 | 0.00 | 0.00 | 83 | 1009.9 |
| 20260505230704 | 49 | 23 | 6.0 | 10.0 | 0.00 | 0.00 | 0.00 | 83 | 1009.9 |
| 20260505230204 | 49 | 19 | 5.0 | 7.0 | 0.00 | 0.00 | 0.00 | 83 | 1009.9 |
| 20260505225704 | 49 | 25 | 5.0 | 7.0 | 0.00 | 0.00 | 0.00 | 83 | 1009.9 |
| 20260505224705 | 49 | 0 | 6.0 | 9.0 | 0.00 | 0.00 | 0.00 | 82 | 1009.9 |
| 20260505224204 | 49 | 14 | 5.0 | 10.0 | 0.00 | 0.00 | 0.00 | 82 | 1009.9 |
| 20260505223704 | 49 | 28 | 4.0 | 9.0 | 0.00 | 0.00 | 0.00 | 81 | 1009.9 |
| 20260505223204 | 49 | 17 | 4.0 | 9.0 | 0.00 | 0.00 | 0.00 | 81 | 1010.0 |
| 20260505222706 | 50 | 21 | 5.0 | 10.0 | 0.00 | 0.00 | 0.00 | 81 | 1009.9 |
| 20260505222205 | 50 | 10 | 5.0 | 10.0 | 0.00 | 0.00 | 0.00 | 80 | 1010.0 |
| 20260505221704 | 50 | 11 | 6.0 | 10.0 | 0.00 | 0.00 | 0.00 | 80 | 1010.0 |
| 20260505221205 | 50 | 15 | 5.0 | 12.0 | 0.00 | 0.00 | 0.00 | 79 | 1010.1 |
| 20260505220204 | 51 | 11 | 5.0 | 10.0 | 0.00 | 0.00 | 0.00 | 78 | 1010.1 |
| 20260505215704 | 51 | 17 | 6.0 | 12.0 | 0.00 | 0.00 | 0.00 | 78 | 1010.1 |
| 20260505215204 | 51 | 17 | 7.0 | 12.0 | 0.00 | 0.00 | 0.00 | 78 | 1010.2 |
| 20260505214704 | 51 | 16 | 6.0 | 14.0 | 0.00 | 0.00 | 0.00 | 77 | 1010.1 |
| 20260505213204 | 51 | 15 | 6.0 | 9.0 | 0.00 | 0.00 | 0.00 | 77 | 1010.3 |
| 20260505212704 | 51 | 21 | 9.0 | 12.0 | 0.00 | 0.00 | 0.00 | 77 | 1010.3 |
| 20260505212204 | 51 | 15 | 6.0 | 10.0 | 0.00 | 0.00 | 0.00 | 78 | 1010.3 |
| 20260505211704 | 51 | 25 | 9.0 | 13.0 | 0.00 | 0.00 | 0.00 | 77 | 1010.3 |
| 20260505211203 | 51 | 17 | 5.0 | 12.0 | 0.00 | 0.00 | 0.00 | 77 | 1010.3 |
| 20260505210704 | 51 | 23 | 7.0 | 10.0 | 0.00 | 0.00 | 0.00 | 77 | 1010.3 |
| 20260505210204 | 51 | 8 | 4.0 | 10.0 | 0.00 | 0.00 | 0.00 | 77 | 1010.4 |
| 20260505205204 | 51 | 19 | 7.0 | 12.0 | 0.00 | 0.00 | 0.00 | 77 | 1010.4 |
| 20260505204703 | 51 | 15 | 5.0 | 13.0 | 0.00 | 0.00 | 0.00 | 76 | 1010.4 |
| 20260505204203 | 51 | 20 | 7.0 | 12.0 | 0.00 | 0.00 | 0.00 | 77 | 1010.5 |
| 20260505203704 | 51 | 5 | 6.0 | 12.0 | 0.00 | 0.00 | 0.00 | 77 | 1010.5 |
| 20260505203204 | 51 | 17 | 5.0 | 12.0 | 0.00 | 0.00 | 0.00 | 77 | 1010.5 |
| 20260505202704 | 51 | 17 | 6.0 | 9.0 | 0.00 | 0.00 | 0.00 | 78 | 1010.5 |
| 20260505202202 | 51 | 30 | 6.0 | 12.0 | 0.00 | 0.00 | 0.00 | 77 | 1010.4 |
| 20260505201702 | 51 | 17 | 6.0 | 12.0 | 0.00 | 0.00 | 0.00 | 77 | 1010.4 |
| 20260505201202 | 51 | 8 | 7.0 | 10.0 | 0.00 | 0.00 | 0.00 | 78 | 1010.4 |
| 20260505200702 | 51 | 19 | 7.0 | 12.0 | 0.00 | 0.00 | 0.00 | 78 | 1010.4 |
| 20260505200201 | 51 | 15 | 6.0 | 12.0 | 0.00 | 0.00 | 0.00 | 78 | 1010.4 |
| 20260505195202 | 51 | 13 | 3.0 | 5.0 | 0.00 | 0.00 | 0.00 | 80 | 1010.3 |
| 20260505194702 | 51 | 21 | 5.0 | 9.0 | 0.00 | 0.00 | 0.00 | 80 | 1010.3 |